Portada
METAR-TAF:

METAR-TAF

Aeroports :

Aeroport Internacional Príncep Said Ibrahim

Moroni, Comores

latitud: 11-32S, longitud: 043-16E, altitud: 29 m

Observació

L'informe es va fer fa 35 minuts, a les 08:00 UTC
Vent 24 kt del Sud/Sud-Oest amb ràfegues de 38 kt
Temperatura 30°C
Humitat 59%
Pressió 1016 hPa
Visibilitat 10 km o més
Escasses núvols a una alçada de 2000 ft

METAR: FMCH 220800Z 20024G38KT 9999 FEW020 30/21 Q1016 NOSIG

Hora: 11:35 (08:35 UTC)

Pronòstic

L'informe es va fer fa 3 hores i 35 minuts, a les 05:00 UTC
Pronòstic vàlid del 22 a les 06 UTC al 23 a les 12 UTC
Vent 18 kt del Sud-Oest amb ràfegues de 30 kt
Visibilitat 10 km o més
Escasses núvols a una alçada de 2000 ft
Evolucionant progressivament
l' 22 a les 16 UTC al 22 a les 18 UTC
Vent 5 kt del Sud/Sud-Est amb ràfegues de 15 kt
Evolucionant progressivament
l' 23 a les 04 UTC al 23 a les 06 UTC
Vent 16 kt del Sud-Oest

TAF: FMCH 220500Z 2206/2312 22018G30KT 9999 FEW020 BECMG 2216/2218 16005G15KT BECMG 2304/2306 22016KT

Observacions i pronòstics meteorològics de més de 4000 aeroports (METAR i TAF).

Les estacions disponibles són els punts grocs i vermells al mapa.

Posi el ratolí al punt desitjat per veure el nom de l'estació.

Feu clic per veure les observacions i els pronòstics meteorològics.

Per canviar el mapa: feu clic els botons verds amb una creu de color negre per apropar; al botó verd amb un guió per allunyar la imatge; o en les fletxes verdes per a mapes adjacents.


METAR-TAF: